createdAt,value
2023-01-02T00:00:01.274Z,96.80
2023-01-02T00:00:34.436Z,96.40
2023-01-02T00:01:06.566Z,96.60
2023-01-02T00:01:39.643Z,96.60
2023-01-02T00:02:11.554Z,96.60
2023-01-02T00:02:44.502Z,96.40
2023-01-02T00:03:16.552Z,96.80
2023-01-02T00:03:48.516Z,97.00
2023-01-02T00:04:20.379Z,97.00
2023-01-02T00:04:52.159Z,96.40
2023-01-02T00:05:24.044Z,96.60
2023-01-02T00:05:55.817Z,96.70
2023-01-02T00:06:27.565Z,96.60
2023-01-02T00:06:59.950Z,96.70
2023-01-02T00:07:31.750Z,96.60
2023-01-02T00:08:03.741Z,96.60
2023-01-02T00:08:35.558Z,96.70
2023-01-02T00:09:08.880Z,97.10
2023-01-02T00:09:40.719Z,96.60
2023-01-02T00:10:12.525Z,96.40
2023-01-02T00:10:44.738Z,96.40
2023-01-02T00:11:16.930Z,96.60
2023-01-02T00:11:48.671Z,97.40
2023-01-02T00:12:22.242Z,96.70
2023-01-02T00:12:54.003Z,96.60
2023-01-02T00:13:25.824Z,96.40
2023-01-02T00:13:57.704Z,96.40
2023-01-02T00:14:29.473Z,96.60
2023-01-02T00:15:03.261Z,96.60
2023-01-02T00:15:35.148Z,96.70
2023-01-02T00:16:07.293Z,96.40
2023-01-02T00:16:39.200Z,96.70
2023-01-02T00:17:11.296Z,96.70
2023-01-02T00:17:43.075Z,96.60
2023-01-02T00:18:15.196Z,97.10
2023-01-02T00:18:46.949Z,97.00
2023-01-02T00:19:18.772Z,96.50
2023-01-02T00:19:50.526Z,96.70
2023-01-02T00:20:54.547Z,96.40
2023-01-02T00:21:26.360Z,96.70
2023-01-02T00:21:58.224Z,96.70
2023-01-02T00:22:29.999Z,96.70
2023-01-02T00:23:01.881Z,97.30
2023-01-02T00:23:33.996Z,95.80
2023-01-02T00:24:05.976Z,96.40
2023-01-02T00:24:37.924Z,96.70
2023-01-02T00:25:09.983Z,96.70
2023-01-02T00:25:41.985Z,96.80
2023-01-02T00:26:13.816Z,96.40
2023-01-02T00:26:45.658Z,96.60
2023-01-02T00:27:17.524Z,96.60
2023-01-02T00:27:49.356Z,97.00
2023-01-02T00:28:21.145Z,96.60
2023-01-02T00:28:52.901Z,96.60
2023-01-02T00:29:24.672Z,96.90
2023-01-02T00:29:56.438Z,96.70
2023-01-02T00:30:33.782Z,96.70
2023-01-02T00:31:12.456Z,96.40
2023-01-02T00:31:44.292Z,96.60
2023-01-02T00:32:16.241Z,96.70
2023-01-02T00:32:48.043Z,96.60
2023-01-02T00:33:19.937Z,96.70
2023-01-02T00:33:51.728Z,96.60
2023-01-02T00:34:23.543Z,96.40
2023-01-02T00:34:55.310Z,96.40
2023-01-02T00:35:27.070Z,96.60
2023-01-02T00:35:58.955Z,96.40
2023-01-02T00:36:30.696Z,96.80
2023-01-02T00:37:02.477Z,96.60
2023-01-02T00:37:34.271Z,97.00
2023-01-02T00:38:06.556Z,96.40
2023-01-02T00:38:39.704Z,96.40
2023-01-02T00:39:11.490Z,96.60
2023-01-02T00:39:43.198Z,96.60
2023-01-02T00:40:15.149Z,96.30
2023-01-02T00:40:46.901Z,96.60
2023-01-02T00:41:18.848Z,96.60
2023-01-02T00:41:50.620Z,96.30
2023-01-02T00:42:22.414Z,96.60
2023-01-02T00:42:54.197Z,96.70
2023-01-02T00:43:26.723Z,96.50
2023-01-02T00:43:58.696Z,96.30
2023-01-02T00:44:30.701Z,96.60
2023-01-02T00:45:02.495Z,96.70
2023-01-02T00:45:34.266Z,97.30
2023-01-02T00:46:11.534Z,96.60
2023-01-02T00:46:43.955Z,96.30
2023-01-02T00:47:15.861Z,96.50
2023-01-02T00:47:48.335Z,97.10
2023-01-02T00:48:20.410Z,96.30
2023-01-02T00:48:52.186Z,97.10
2023-01-02T00:49:23.929Z,96.70
2023-01-02T00:49:55.665Z,96.30
2023-01-02T00:50:27.543Z,96.20
2023-01-02T00:50:59.320Z,96.50
2023-01-02T00:51:31.061Z,96.50
2023-01-02T00:52:02.872Z,96.50
2023-01-02T00:52:35.215Z,96.50
2023-01-02T00:53:07.037Z,95.40
2023-01-02T00:53:38.799Z,96.50
2023-01-02T00:54:42.788Z,96.20
2023-01-02T00:55:14.588Z,96.40
2023-01-02T00:55:46.839Z,96.20
2023-01-02T00:56:18.758Z,96.40
2023-01-02T00:56:51.877Z,96.40
2023-01-02T00:57:23.661Z,96.40
2023-01-02T00:57:55.475Z,96.40
2023-01-02T00:58:27.332Z,96.60
2023-01-02T00:59:31.396Z,96.10
2023-01-02T01:00:04.677Z,96.40
2023-01-02T01:00:36.602Z,96.40
2023-01-02T01:01:08.459Z,96.30
2023-01-02T01:01:40.374Z,96.30
2023-01-02T01:02:12.457Z,96.40
2023-01-02T01:02:44.426Z,96.30
2023-01-02T01:03:16.433Z,96.10
2023-01-02T01:03:48.307Z,96.70
2023-01-02T01:04:20.212Z,96.50
2023-01-02T01:04:52.072Z,96.10
2023-01-02T01:05:25.403Z,96.30
2023-01-02T01:05:57.488Z,96.20
2023-01-02T01:06:29.329Z,96.30
2023-01-02T01:07:01.356Z,96.30
2023-01-02T01:07:33.146Z,96.30
2023-01-02T01:08:05.229Z,96.40
2023-01-02T01:08:38.515Z,96.50
2023-01-02T01:09:10.274Z,96.30
2023-01-02T01:09:42.094Z,96.30
2023-01-02T01:10:13.957Z,96.00
2023-01-02T01:10:45.770Z,96.20
2023-01-02T01:11:17.862Z,96.30
2023-01-02T01:11:49.685Z,96.00
2023-01-02T01:12:21.439Z,96.30
2023-01-02T01:12:53.592Z,96.00
2023-01-02T01:13:25.389Z,96.30
2023-01-02T01:13:57.145Z,96.40
2023-01-02T01:14:28.898Z,96.20
2023-01-02T01:15:00.703Z,96.70
2023-01-02T01:15:35.832Z,96.00
2023-01-02T01:16:14.390Z,96.30
2023-01-02T01:16:46.263Z,96.20
2023-01-02T01:17:19.079Z,96.10
2023-01-02T01:17:50.969Z,96.20
2023-01-02T01:18:22.779Z,96.60
2023-01-02T01:18:56.490Z,96.20
2023-01-02T01:19:35.960Z,96.20
2023-01-02T01:20:08.280Z,95.90
2023-01-02T01:20:40.291Z,96.20
2023-01-02T01:21:18.023Z,96.10
2023-01-02T01:21:49.759Z,96.20
2023-01-02T01:22:21.593Z,95.90
2023-01-02T01:22:53.422Z,96.20
2023-01-02T01:23:25.285Z,95.90
2023-01-02T01:23:57.142Z,96.20
2023-01-02T01:24:29.051Z,95.90
2023-01-02T01:25:00.831Z,96.10
2023-01-02T01:25:32.671Z,95.90
2023-01-02T01:26:06.552Z,96.00
2023-01-02T01:26:38.348Z,95.80
2023-01-02T01:27:10.289Z,95.80
2023-01-02T01:27:42.078Z,96.40
2023-01-02T01:28:13.887Z,95.90
2023-01-02T01:28:45.697Z,95.80
2023-01-02T01:29:17.817Z,96.10
2023-01-02T01:29:49.551Z,96.10
2023-01-02T01:30:21.356Z,96.50
2023-01-02T01:30:53.134Z,96.40
2023-01-02T01:31:25.074Z,95.90
2023-01-02T01:31:56.952Z,96.00
2023-01-02T01:32:29.444Z,95.80
2023-01-02T01:33:01.245Z,95.80
2023-01-02T01:33:33.787Z,95.80
2023-01-02T01:34:05.579Z,96.00
2023-01-02T01:34:37.402Z,96.00
2023-01-02T01:35:09.341Z,96.00
2023-01-02T01:35:41.221Z,96.00
2023-01-02T01:36:21.514Z,95.90
2023-01-02T01:36:53.506Z,95.90
2023-01-02T01:37:25.283Z,95.70
2023-01-02T01:37:57.075Z,96.00
2023-01-02T01:38:28.981Z,96.00
2023-01-02T01:39:00.759Z,96.00
2023-01-02T01:39:32.678Z,96.00
2023-01-02T01:40:04.900Z,96.00
2023-01-02T01:40:39.681Z,96.00
2023-01-02T01:41:19.068Z,96.20
2023-01-02T01:41:50.964Z,95.80
2023-01-02T01:42:22.832Z,95.70
2023-01-02T01:43:00.555Z,96.30
2023-01-02T01:43:47.198Z,96.10
2023-01-02T01:44:45.488Z,95.90
2023-01-02T01:45:17.624Z,95.70
2023-01-02T01:45:49.471Z,95.90
2023-01-02T01:46:26.862Z,95.80
2023-01-02T01:46:58.662Z,95.90
2023-01-02T01:47:42.266Z,95.90
2023-01-02T01:48:17.429Z,95.90
2023-01-02T01:49:05.696Z,96.70
2023-01-02T01:49:37.678Z,95.80
2023-01-02T01:50:14.126Z,96.00
2023-01-02T01:50:46.123Z,95.90
2023-01-02T01:51:20.568Z,96.30
2023-01-02T01:51:59.226Z,95.80
2023-01-02T01:52:33.083Z,95.90
2023-01-02T01:53:13.857Z,95.80
2023-01-02T01:53:49.932Z,95.80
2023-01-02T01:54:35.548Z,95.70
2023-01-02T01:55:11.132Z,95.80
2023-01-02T01:55:50.424Z,95.80
2023-01-02T01:56:22.310Z,95.60
2023-01-02T01:57:00.362Z,95.50
2023-01-02T01:57:41.298Z,95.80
2023-01-02T01:58:28.531Z,95.80
2023-01-02T01:59:00.464Z,95.70
2023-01-02T01:59:34.977Z,95.50
2023-01-02T02:00:08.300Z,95.50
2023-01-02T02:00:43.549Z,95.70
2023-01-02T02:01:17.288Z,96.20
2023-01-02T02:01:51.452Z,95.60
2023-01-02T02:02:26.916Z,95.80
2023-01-02T02:03:04.985Z,95.80
2023-01-02T02:03:38.777Z,95.70
2023-01-02T02:04:11.766Z,96.40
2023-01-02T02:04:45.960Z,95.80
2023-01-02T02:05:23.711Z,95.70
2023-01-02T02:05:58.028Z,95.70
2023-01-02T02:06:30.285Z,95.80
2023-01-02T02:07:02.313Z,95.90
2023-01-02T02:07:40.066Z,95.70
2023-01-02T02:08:23.552Z,95.90
2023-01-02T02:09:06.081Z,95.70
2023-01-02T02:09:44.367Z,95.70
2023-01-02T02:10:16.345Z,95.70
2023-01-02T02:10:49.236Z,95.70
2023-01-02T02:11:21.276Z,95.80
2023-01-02T02:11:55.335Z,96.10
2023-01-02T02:12:28.704Z,95.80
2023-01-02T02:13:00.537Z,95.70
2023-01-02T02:13:33.974Z,95.70
2023-01-02T02:14:05.832Z,95.70
2023-01-02T02:14:37.665Z,96.00
2023-01-02T02:15:17.851Z,95.80
2023-01-02T02:16:13.380Z,96.00
2023-01-02T02:16:54.714Z,95.60
2023-01-02T02:17:47.535Z,95.60
2023-01-02T02:18:47.617Z,95.60
2023-01-02T02:19:45.480Z,95.60
2023-01-02T02:20:43.428Z,95.60
2023-01-02T02:22:01.283Z,95.60
2023-01-02T02:22:44.655Z,95.60
2023-01-02T02:23:30.737Z,95.70
2023-01-02T02:24:40.149Z,95.60
2023-01-02T02:25:11.864Z,95.60
2023-01-02T02:26:02.354Z,96.00
2023-01-02T02:26:58.912Z,95.40
2023-01-02T02:28:08.309Z,95.60
2023-01-02T02:29:09.593Z,95.60
2023-01-02T02:29:44.489Z,95.40
2023-01-02T02:30:19.865Z,95.30
2023-01-02T02:31:15.688Z,95.60
2023-01-02T02:32:13.264Z,95.50
2023-01-02T02:33:08.631Z,95.50
2023-01-02T02:34:12.678Z,95.30
2023-01-02T02:34:59.395Z,95.50
2023-01-02T02:35:31.321Z,95.50
2023-01-02T02:36:17.968Z,95.50
2023-01-02T02:37:01.929Z,95.30
2023-01-02T02:37:40.709Z,95.50
2023-01-02T02:38:21.333Z,95.60
2023-01-02T02:39:14.528Z,95.50
2023-01-02T02:40:02.977Z,95.40
2023-01-02T02:41:12.176Z,95.40
2023-01-02T02:42:11.930Z,95.50
2023-01-02T02:43:03.118Z,95.50
2023-01-02T02:43:37.915Z,96.00
2023-01-02T02:44:42.009Z,95.60
2023-01-02T02:46:12.992Z,95.20
2023-01-02T02:46:47.934Z,95.20
2023-01-02T02:47:58.695Z,95.50
2023-01-02T02:49:20.385Z,95.10
2023-01-02T02:56:19.376Z,94.40
2023-01-02T02:57:26.144Z,94.40
2023-01-02T03:07:24.388Z,94.30
2023-01-02T03:08:08.569Z,94.40
2023-01-02T03:09:11.620Z,94.60
2023-01-02T03:10:05.425Z,94.90
2023-01-02T03:10:58.621Z,95.10
2023-01-02T03:11:51.973Z,94.90
2023-01-02T03:12:35.092Z,95.10
2023-01-02T03:13:44.810Z,95.10
2023-01-02T03:14:40.047Z,95.20
2023-01-02T03:15:25.826Z,95.50
2023-01-02T03:16:07.777Z,95.10
2023-01-02T03:16:46.497Z,95.50
2023-01-02T03:17:29.986Z,95.30
2023-01-02T03:18:04.841Z,95.30
2023-01-02T03:18:59.074Z,95.50
2023-01-02T03:19:42.248Z,95.50
2023-01-02T03:20:19.326Z,95.40
2023-01-02T03:21:10.381Z,95.20
2023-01-02T03:21:52.293Z,95.40
2023-01-02T03:22:31.594Z,95.20
2023-01-02T03:23:11.222Z,95.60
2023-01-02T03:23:48.841Z,95.70
2023-01-02T03:24:24.343Z,95.40
2023-01-02T03:24:58.773Z,95.40
2023-01-02T03:25:34.204Z,95.50
2023-01-02T03:26:06.571Z,95.20
2023-01-02T03:26:44.525Z,95.20
2023-01-02T03:27:26.415Z,95.50
2023-01-02T03:28:04.288Z,95.50
2023-01-02T03:28:42.165Z,95.30
2023-01-02T03:29:20.511Z,95.50
2023-01-02T03:30:13.603Z,95.60
2023-01-02T03:30:49.422Z,95.50
2023-01-02T03:31:25.219Z,95.50
2023-01-02T03:32:01.308Z,95.60
2023-01-02T03:32:43.610Z,95.50
2023-01-02T03:33:27.354Z,95.50
2023-01-02T03:34:10.109Z,95.50
2023-01-02T03:34:45.579Z,95.50
2023-01-02T03:35:24.004Z,95.80
2023-01-02T03:36:03.359Z,95.30
2023-01-02T03:36:39.276Z,95.60
2023-01-02T03:37:17.398Z,95.80
2023-01-02T03:37:54.554Z,96.20
2023-01-02T03:38:33.389Z,95.80
2023-01-02T03:39:29.385Z,95.60
2023-01-02T03:40:09.581Z,95.40
2023-01-02T03:40:58.280Z,95.70
2023-01-02T03:41:44.282Z,95.60
2023-01-02T03:42:29.410Z,95.60
2023-01-02T03:43:23.608Z,95.00
2023-01-02T03:43:58.310Z,95.90
2023-01-02T03:44:47.075Z,95.40
2023-01-02T03:45:27.599Z,95.60
2023-01-02T03:46:09.266Z,95.90
2023-01-02T03:46:59.414Z,95.40
2023-01-02T03:47:38.143Z,95.60
2023-01-02T03:48:29.315Z,95.40
2023-01-02T03:49:08.779Z,95.60
2023-01-02T03:49:45.275Z,96.20
2023-01-02T03:50:48.955Z,95.70
2023-01-02T03:51:20.871Z,95.70
2023-01-02T03:51:53.797Z,95.70
2023-01-02T03:52:26.278Z,95.50
2023-01-02T03:52:58.500Z,95.80
2023-01-02T03:53:33.418Z,95.60
2023-01-02T03:54:06.499Z,95.50
2023-01-02T03:54:38.924Z,95.70
2023-01-02T03:55:11.555Z,95.70
2023-01-02T03:55:57.094Z,95.70
2023-01-02T03:56:51.829Z,95.70
2023-01-02T03:57:48.034Z,95.60
2023-01-02T03:58:45.533Z,95.40
2023-01-02T03:59:39.051Z,95.60
2023-01-02T04:00:15.238Z,95.60
2023-01-02T04:00:56.002Z,95.60
2023-01-02T04:01:54.370Z,95.60
2023-01-02T04:02:48.902Z,95.60
2023-01-02T04:03:29.020Z,95.40
2023-01-02T04:04:17.371Z,95.60
2023-01-02T04:04:53.834Z,95.60
2023-01-02T04:05:54.365Z,95.50
2023-01-02T04:06:34.728Z,95.60
2023-01-02T04:07:12.295Z,95.70
2023-01-02T04:08:05.940Z,96.00
2023-01-02T04:09:01.711Z,96.30
2023-01-02T04:09:35.864Z,95.80
2023-01-02T04:10:12.873Z,95.70
2023-01-02T04:10:49.848Z,95.70
2023-01-02T04:11:28.826Z,95.70
2023-01-02T04:12:07.400Z,95.70
2023-01-02T04:12:44.155Z,96.70
2023-01-02T04:13:21.995Z,95.50
2023-01-02T04:14:02.968Z,95.70
2023-01-02T04:14:45.795Z,96.00
2023-01-02T04:15:22.701Z,95.50
2023-01-02T04:15:55.708Z,95.70
2023-01-02T04:16:35.256Z,95.50
2023-01-02T04:17:09.311Z,95.60
2023-01-02T04:17:51.522Z,96.10
2023-01-02T04:18:29.489Z,96.30
2023-01-02T04:19:09.984Z,95.50
2023-01-02T04:19:53.787Z,95.70
2023-01-02T04:20:33.032Z,95.70
2023-01-02T04:21:15.720Z,95.10
2023-01-02T04:21:52.215Z,95.70
2023-01-02T04:22:29.548Z,95.80
2023-01-02T04:23:14.478Z,96.00
2023-01-02T04:23:52.028Z,95.80
2023-01-02T04:24:33.149Z,95.80
2023-01-02T04:25:14.479Z,95.60
2023-01-02T04:25:54.873Z,95.70
2023-01-02T04:26:36.579Z,95.90
2023-01-02T04:27:14.312Z,95.80
2023-01-02T04:28:03.727Z,95.60
2023-01-02T04:28:36.400Z,95.70
2023-01-02T04:29:08.276Z,95.60
2023-01-02T04:29:41.038Z,95.60
2023-01-02T04:30:12.952Z,95.80
2023-01-02T04:30:50.814Z,95.60
2023-01-02T04:31:47.128Z,95.80
2023-01-02T04:32:25.315Z,95.80
2023-01-02T04:33:03.449Z,95.60
2023-01-02T04:33:41.469Z,96.10
2023-01-02T04:34:15.811Z,95.90
2023-01-02T04:34:51.361Z,95.80
2023-01-02T04:35:24.837Z,95.60
2023-01-02T04:35:56.654Z,95.60
2023-01-02T04:36:28.814Z,95.60
2023-01-02T04:37:00.959Z,95.80
2023-01-02T04:37:38.840Z,95.80
2023-01-02T04:38:12.286Z,96.10
2023-01-02T04:38:45.511Z,95.80
2023-01-02T04:39:21.708Z,95.60
2023-01-02T04:39:58.620Z,95.80
2023-01-02T04:40:31.284Z,95.80
2023-01-02T04:41:04.527Z,96.10
2023-01-02T04:41:39.202Z,96.00
2023-01-02T04:42:10.931Z,95.90
2023-01-02T04:42:42.753Z,95.90
2023-01-02T04:43:20.554Z,95.90
2023-01-02T04:43:53.738Z,95.70
2023-01-02T04:44:25.461Z,95.90
2023-01-02T04:44:57.245Z,96.00
2023-01-02T04:45:28.990Z,95.70
2023-01-02T04:46:00.855Z,95.70
2023-01-02T04:46:33.118Z,95.60
2023-01-02T04:47:05.165Z,95.60
2023-01-02T04:47:36.952Z,95.90
2023-01-02T04:48:08.711Z,95.90
2023-01-02T04:48:40.519Z,96.20
2023-01-02T04:49:12.371Z,95.90
2023-01-02T04:49:44.143Z,95.90
2023-01-02T04:50:16.481Z,95.90
2023-01-02T04:50:48.947Z,95.70
2023-01-02T04:51:21.805Z,96.00
2023-01-02T04:51:53.592Z,95.70
2023-01-02T04:52:25.422Z,95.70
2023-01-02T04:52:57.208Z,95.90
2023-01-02T04:53:29.003Z,96.10
2023-01-02T04:54:00.856Z,96.00
2023-01-02T04:54:32.956Z,95.70
2023-01-02T04:55:08.293Z,96.00
2023-01-02T04:55:40.240Z,95.70
2023-01-02T04:56:12.009Z,96.00
2023-01-02T04:56:43.773Z,95.70
2023-01-02T04:57:15.534Z,96.20
2023-01-02T04:57:47.337Z,95.90
2023-01-02T04:58:19.182Z,95.90
2023-01-02T04:58:51.089Z,95.70
2023-01-02T04:59:23.018Z,95.70
2023-01-02T04:59:54.784Z,95.90
2023-01-02T05:00:26.598Z,95.40
2023-01-02T05:00:58.706Z,96.00
2023-01-02T05:01:30.676Z,96.20
2023-01-02T05:02:02.778Z,96.00
2023-01-02T05:02:38.953Z,95.50
2023-01-02T05:03:10.911Z,95.80
2023-01-02T05:03:46.358Z,96.00
2023-01-02T05:04:18.219Z,95.70
2023-01-02T05:04:50.036Z,96.00
2023-01-02T05:05:21.810Z,96.00
2023-01-02T05:06:00.907Z,95.70
2023-01-02T05:06:32.815Z,96.00
2023-01-02T05:07:04.884Z,96.30
2023-01-02T05:07:37.657Z,96.00
2023-01-02T05:08:15.911Z,95.80
2023-01-02T05:08:48.388Z,96.10
2023-01-02T05:09:20.251Z,96.70
2023-01-02T05:09:52.022Z,96.10
2023-01-02T05:10:23.850Z,95.70
2023-01-02T05:10:55.698Z,96.00
2023-01-02T05:11:27.445Z,96.10
2023-01-02T05:11:59.218Z,96.20
2023-01-02T05:12:34.926Z,96.00
2023-01-02T05:13:39.187Z,95.80
2023-01-02T05:14:10.991Z,95.80
2023-01-02T05:14:42.972Z,96.60
2023-01-02T05:15:14.719Z,95.70
2023-01-02T05:15:46.471Z,96.40
2023-01-02T05:16:18.342Z,96.30
2023-01-02T05:16:50.313Z,95.80
2023-01-02T05:17:22.109Z,96.00
2023-01-02T05:18:29.192Z,95.80
2023-01-02T05:19:00.966Z,96.30
2023-01-02T05:19:32.761Z,95.70
2023-01-02T05:20:06.530Z,95.80
2023-01-02T05:20:38.287Z,96.00
2023-01-02T05:21:32.683Z,95.80
2023-01-02T05:22:22.997Z,96.00
2023-01-02T05:23:13.857Z,95.80
2023-01-02T05:23:48.658Z,96.00
2023-01-02T05:24:20.474Z,95.90
2023-01-02T05:24:52.326Z,96.10
2023-01-02T05:25:25.454Z,96.20
2023-01-02T05:25:57.208Z,96.40
2023-01-02T05:26:32.725Z,95.50
2023-01-02T05:27:04.720Z,96.30
2023-01-02T05:27:36.643Z,96.10
2023-01-02T05:28:08.411Z,96.10
2023-01-02T05:28:40.313Z,96.10
2023-01-02T05:29:12.188Z,96.00
2023-01-02T05:29:43.998Z,96.40
2023-01-02T05:30:15.774Z,96.00
2023-01-02T05:30:49.554Z,96.10
2023-01-02T05:31:21.775Z,95.80
2023-01-02T05:31:53.696Z,95.80
2023-01-02T05:32:26.862Z,95.80
2023-01-02T05:32:58.690Z,95.80
2023-01-02T05:33:30.590Z,96.10
2023-01-02T05:34:02.344Z,96.60
2023-01-02T05:34:34.097Z,95.80
2023-01-02T05:35:06.338Z,95.90
2023-01-02T05:35:38.191Z,96.10
2023-01-02T05:36:10.559Z,96.50
2023-01-02T05:36:42.496Z,96.10
2023-01-02T05:37:14.245Z,96.10
2023-01-02T05:37:46.062Z,95.90
2023-01-02T05:38:17.766Z,95.90
2023-01-02T05:38:49.606Z,95.90
2023-01-02T05:39:21.400Z,96.20
2023-01-02T05:39:53.216Z,96.10
2023-01-02T05:40:24.992Z,96.20
2023-01-02T05:41:04.168Z,96.20
2023-01-02T05:41:35.964Z,96.10
2023-01-02T05:42:07.788Z,95.90
2023-01-02T05:42:39.575Z,96.50
2023-01-02T05:43:11.375Z,96.00
2023-01-02T05:43:43.353Z,96.30
2023-01-02T05:44:15.110Z,96.50
2023-01-02T05:44:46.978Z,96.30
2023-01-02T05:45:19.387Z,95.90
2023-01-02T05:45:51.182Z,96.50
2023-01-02T05:46:22.979Z,95.90
2023-01-02T05:46:54.809Z,95.90
2023-01-02T05:47:26.641Z,95.90
2023-01-02T05:47:58.404Z,96.50
2023-01-02T05:48:30.207Z,95.90
2023-01-02T05:49:05.448Z,96.60
2023-01-02T05:49:37.258Z,96.10
2023-01-02T05:50:09.243Z,96.20
2023-01-02T05:50:41.057Z,96.20
2023-01-02T05:51:17.641Z,96.20
2023-01-02T05:51:49.467Z,96.00
2023-01-02T05:52:22.543Z,96.00
2023-01-02T05:52:55.918Z,96.30
2023-01-02T05:53:27.662Z,96.00
2023-01-02T05:54:00.033Z,96.40
2023-01-02T05:54:32.793Z,96.60
2023-01-02T05:55:04.951Z,96.50
2023-01-02T05:55:37.066Z,96.20
2023-01-02T05:56:09.063Z,96.00
2023-01-02T05:56:40.830Z,96.30
2023-01-02T05:57:12.621Z,96.50
2023-01-02T05:57:44.468Z,96.00
2023-01-02T05:58:16.294Z,96.10
2023-01-02T05:58:49.962Z,96.60
2023-01-02T05:59:21.754Z,96.00
2023-01-02T05:59:53.662Z,96.00
2023-01-02T06:00:25.568Z,96.00
2023-01-02T06:01:04.202Z,96.20
2023-01-02T06:01:36.417Z,96.30
2023-01-02T06:02:08.415Z,96.30
2023-01-02T06:02:45.604Z,96.20
2023-01-02T06:03:19.696Z,96.00
2023-01-02T06:03:56.719Z,96.00
2023-01-02T06:04:29.078Z,96.00
2023-01-02T06:05:00.874Z,96.00
2023-01-02T06:05:32.649Z,96.20
2023-01-02T06:06:06.754Z,95.20
2023-01-02T06:06:40.012Z,96.20
2023-01-02T06:07:11.794Z,96.30
2023-01-02T06:07:43.603Z,96.10
2023-01-02T06:08:15.343Z,96.00
2023-01-02T06:08:47.528Z,96.20
2023-01-02T06:09:19.295Z,96.20
2023-01-02T06:09:51.038Z,96.60
2023-01-02T06:10:22.809Z,96.30
2023-01-02T06:10:54.568Z,96.30
2023-01-02T06:11:59.004Z,96.00
2023-01-02T06:12:30.971Z,96.00
2023-01-02T06:13:02.809Z,96.00
2023-01-02T06:13:37.343Z,96.60
2023-01-02T06:14:10.596Z,96.20
2023-01-02T06:14:42.387Z,96.20
2023-01-02T06:15:14.184Z,96.20
2023-01-02T06:15:45.959Z,96.70
2023-01-02T06:16:17.816Z,96.20
2023-01-02T06:16:49.851Z,96.30
2023-01-02T06:17:22.579Z,96.00
2023-01-02T06:17:54.359Z,96.00
2023-01-02T06:18:27.568Z,96.80
2023-01-02T06:19:31.593Z,96.00
2023-01-02T06:20:03.632Z,96.20
2023-01-02T06:20:35.373Z,96.20
2023-01-02T06:21:10.281Z,96.00
2023-01-02T06:21:42.089Z,96.20
2023-01-02T06:22:13.893Z,96.70
2023-01-02T06:22:45.803Z,96.20
2023-01-02T06:23:17.621Z,96.20
2023-01-02T06:23:54.823Z,96.00
2023-01-02T06:24:27.891Z,96.00
2023-01-02T06:25:00.882Z,96.30
2023-01-02T06:25:35.263Z,96.00
2023-01-02T06:26:13.769Z,96.00
2023-01-02T06:26:45.635Z,97.00
2023-01-02T06:27:17.450Z,96.00
2023-01-02T06:27:49.264Z,96.40
2023-01-02T06:28:21.715Z,96.20
2023-01-02T06:28:55.633Z,96.20
2023-01-02T06:29:27.696Z,96.30
2023-01-02T06:29:59.460Z,96.70
2023-01-02T06:30:31.341Z,96.50
2023-01-02T06:31:08.723Z,96.10
2023-01-02T06:31:42.552Z,96.60
2023-01-02T06:32:16.743Z,96.30
2023-01-02T06:32:50.144Z,96.50
2023-01-02T06:33:21.959Z,96.40
2023-01-02T06:33:58.288Z,96.30
2023-01-02T06:34:30.105Z,96.10
2023-01-02T06:35:01.920Z,96.00
2023-01-02T06:35:33.809Z,96.30
2023-01-02T06:36:09.683Z,96.20
2023-01-02T06:36:41.457Z,96.20
2023-01-02T06:37:13.274Z,96.00
2023-01-02T06:37:45.253Z,96.00
2023-01-02T06:38:17.024Z,96.30
2023-01-02T06:38:48.873Z,96.20
2023-01-02T06:39:20.667Z,96.50
2023-01-02T06:39:52.442Z,96.30
2023-01-02T06:40:24.504Z,96.30
2023-01-02T06:40:58.618Z,96.10
2023-01-02T06:41:30.899Z,96.30
2023-01-02T06:42:02.677Z,96.50
2023-01-02T06:42:34.441Z,96.40
2023-01-02T06:43:06.205Z,96.00
2023-01-02T06:43:46.111Z,96.30
2023-01-02T06:44:19.451Z,96.30
2023-01-02T06:44:51.327Z,96.60
2023-01-02T06:45:23.714Z,96.10
2023-01-02T06:45:59.917Z,96.40
2023-01-02T06:46:31.734Z,96.70
2023-01-02T06:47:03.586Z,96.10
2023-01-02T06:47:35.357Z,96.30
2023-01-02T06:48:07.112Z,96.30
2023-01-02T06:48:39.731Z,96.30
2023-01-02T06:49:11.496Z,96.30
2023-01-02T06:49:43.556Z,96.30
2023-01-02T06:50:15.417Z,96.00
2023-01-02T06:50:47.287Z,96.30
2023-01-02T06:51:21.654Z,96.10
2023-01-02T06:51:53.428Z,96.60
2023-01-02T06:52:27.038Z,96.10
2023-01-02T06:52:58.787Z,96.30
2023-01-02T06:53:32.786Z,96.30
2023-01-02T06:54:04.599Z,96.30
2023-01-02T06:54:36.368Z,96.50
2023-01-02T06:55:08.349Z,96.30
2023-01-02T06:55:40.282Z,96.30
2023-01-02T06:56:13.743Z,96.90
2023-01-02T06:56:45.513Z,96.70
2023-01-02T06:57:17.258Z,96.40
2023-01-02T06:57:49.072Z,96.10
2023-01-02T06:58:21.505Z,96.90
2023-01-02T06:58:53.342Z,96.30
2023-01-02T06:59:26.859Z,96.60
2023-01-02T06:59:58.692Z,96.40
2023-01-02T07:00:30.699Z,96.40
2023-01-02T07:01:08.324Z,96.10
2023-01-02T07:01:40.246Z,96.30
2023-01-02T07:02:13.374Z,96.10
2023-01-02T07:02:45.387Z,97.20
2023-01-02T07:03:17.796Z,96.10
2023-01-02T07:03:49.823Z,96.30
2023-01-02T07:04:22.292Z,96.30
2023-01-02T07:04:54.042Z,96.30
2023-01-02T07:05:25.804Z,96.70
2023-01-02T07:06:04.427Z,97.00
2023-01-02T07:06:36.226Z,96.40
2023-01-02T07:07:08.742Z,96.40
2023-01-02T07:07:40.549Z,96.40
2023-01-02T07:08:13.419Z,96.20
2023-01-02T07:08:45.695Z,96.40
2023-01-02T07:09:17.519Z,96.40
2023-01-02T07:09:49.341Z,96.10
2023-01-02T07:10:21.345Z,96.50
2023-01-02T07:10:53.287Z,96.40
2023-01-02T07:11:25.422Z,96.60
2023-01-02T07:11:58.354Z,96.10
2023-01-02T07:12:30.350Z,96.50
2023-01-02T07:13:02.296Z,96.10
2023-01-02T07:13:34.447Z,96.10
2023-01-02T07:14:06.260Z,96.10
2023-01-02T07:14:38.103Z,96.40
2023-01-02T07:15:10.382Z,96.90
2023-01-02T07:15:42.172Z,96.10
2023-01-02T07:16:16.314Z,96.50
2023-01-02T07:16:48.209Z,96.10
2023-01-02T07:17:20.030Z,96.20
2023-01-02T07:17:51.860Z,96.40
2023-01-02T07:18:23.603Z,96.40
2023-01-02T07:18:56.223Z,96.40
2023-01-02T07:19:28.238Z,96.60
2023-01-02T07:20:02.303Z,96.20
2023-01-02T07:20:34.395Z,96.60
2023-01-02T07:21:08.133Z,96.50
2023-01-02T07:21:39.971Z,96.50
2023-01-02T07:22:11.729Z,96.40
2023-01-02T07:22:43.458Z,96.40
2023-01-02T07:23:15.268Z,96.40
2023-01-02T07:23:47.194Z,96.80
2023-01-02T07:24:18.979Z,96.50
2023-01-02T07:24:50.990Z,96.40
2023-01-02T07:25:23.096Z,96.40
2023-01-02T07:25:59.528Z,96.20
2023-01-02T07:26:31.486Z,96.40
2023-01-02T07:27:03.388Z,96.40
2023-01-02T07:27:35.209Z,96.40
2023-01-02T07:28:06.931Z,96.10
2023-01-02T07:28:39.458Z,96.10
2023-01-02T07:29:11.288Z,95.40
2023-01-02T07:29:43.020Z,96.50
2023-01-02T07:30:15.376Z,96.70
2023-01-02T07:30:47.376Z,96.20
2023-01-02T07:31:20.480Z,96.20
2023-01-02T07:31:52.374Z,96.80
2023-01-02T07:32:27.619Z,96.40
2023-01-02T07:32:59.688Z,96.70
2023-01-02T07:33:32.823Z,96.40
2023-01-02T07:34:04.663Z,96.30
2023-01-02T07:34:36.469Z,96.60
2023-01-02T07:35:08.880Z,96.50
2023-01-02T07:35:41.104Z,96.50
2023-01-02T07:36:18.975Z,97.40
2023-01-02T07:36:50.770Z,96.40
2023-01-02T07:37:22.685Z,96.90
2023-01-02T07:37:54.565Z,96.20
2023-01-02T07:38:27.238Z,96.90
2023-01-02T07:38:59.033Z,96.30
2023-01-02T07:39:30.843Z,96.50
2023-01-02T07:40:35.016Z,96.20
2023-01-02T07:41:15.560Z,96.70
2023-01-02T07:41:47.549Z,96.40
2023-01-02T07:42:20.358Z,96.40
2023-01-02T07:42:53.713Z,97.10
2023-01-02T07:43:26.010Z,96.10
2023-01-02T07:43:57.858Z,96.20
2023-01-02T07:44:29.839Z,96.20
2023-01-02T07:45:01.620Z,96.80
2023-01-02T07:45:35.082Z,96.70
2023-01-02T07:46:07.003Z,96.30
2023-01-02T07:46:38.786Z,96.50
2023-01-02T07:47:10.689Z,96.30
2023-01-02T07:47:42.481Z,96.20
2023-01-02T07:48:14.445Z,96.40
2023-01-02T07:48:47.120Z,96.20
2023-01-02T07:49:18.921Z,96.20
2023-01-02T07:49:50.703Z,96.50
2023-01-02T07:50:22.548Z,96.20
2023-01-02T07:50:54.304Z,96.20
2023-01-02T07:51:27.786Z,96.20
2023-01-02T07:52:00.540Z,96.50
2023-01-02T07:52:32.353Z,97.00
2023-01-02T07:53:04.163Z,96.90
2023-01-02T07:53:36.674Z,96.50
2023-01-02T07:54:08.489Z,97.20
2023-01-02T07:54:40.297Z,96.20
2023-01-02T07:55:12.049Z,96.20
2023-01-02T07:55:43.772Z,96.60
2023-01-02T07:56:15.517Z,96.50
2023-01-02T07:56:47.237Z,96.50